Skip Navigation LinksHome page > Weather > Current weather Skip Navigation Links

Current Weather

Fairford RAFB, Fairford, United Kingdom

For information only: do not use for flight planning or navigation.
Latest weather
Observation time Monday, November 29, 2021 7:56 PM GMT
Local time Monday, November 29, 2021 8:05 PM GMT
Flight conditions Instrument Meteorological Conditions
Winds
Wind direction West-Southwest (250°)
Wind speed 8 mph
Visibility 6.2 mi.
Sky condition
Ceiling 900 ft. overcast
Cloud layer overcast 900 ft.
Temperature 38°F
Dewpoint 37°F
Altimeter 29.95 in.Hg
Derived measurements
Relative humidity 99%
Wind chill 32°F
Density altitude -1366 ft.
Sea-level pressure 29.97 in.Hg
Remarks
Fully automated report.
System requires maintenance.
Automated weather observing station with precipitation discriminator.
METAR EGVA 291956Z AUTO 25007KT 9999 OVC009 03/03 A2995 RMK AO2 SLP150 T00310030 $

Settings

Location code

InnerDrive.Weather 4.0.6770.0 Release CLR 4.0.30319.42000
Copyright ©2018 Inner Drive Technology. All rights reserved. Portions Copyright ©1986-2018 David Braverman.

Find weather

Site navigation


Skip Navigation Links

Place info

Page info

PayPal - The safer, easier way to pay online!

Return home.

Copyright ©2021 Inner Drive Technology. Purveyors of fine, hand-crafted computer software. Page printed 2021-11-29T20:05:51 UTC.